sensor_id;sensor_type;location;lat;lon;timestamp;pressure;altitude;pressure_sealevel;temperature;humidity
59686;BME280;45554;51.096;16.976;2024-01-10T00:01:08;102094.14;;;-10.42;67.62
59686;BME280;45554;51.096;16.976;2024-01-10T00:03:45;102093.58;;;-10.40;67.76
59686;BME280;45554;51.096;16.976;2024-01-10T00:06:13;102095.77;;;-10.35;67.95
59686;BME280;45554;51.096;16.976;2024-01-10T00:08:42;102098.56;;;-10.33;67.76
59686;BME280;45554;51.096;16.976;2024-01-10T00:11:10;102098.55;;;-10.34;67.65
59686;BME280;45554;51.096;16.976;2024-01-10T00:13:38;102089.15;;;-10.35;67.58
59686;BME280;45554;51.096;16.976;2024-01-10T00:16:06;102089.79;;;-10.30;67.76
59686;BME280;45554;51.096;16.976;2024-01-10T00:18:35;102089.32;;;-10.26;67.84
59686;BME280;45554;51.096;16.976;2024-01-10T00:21:03;102087.70;;;-10.25;67.77
59686;BME280;45554;51.096;16.976;2024-01-10T00:23:31;102084.55;;;-10.21;67.80
59686;BME280;45554;51.096;16.976;2024-01-10T00:25:59;102083.02;;;-10.21;67.41
59686;BME280;45554;51.096;16.976;2024-01-10T00:28:27;102086.53;;;-10.19;67.53
59686;BME280;45554;51.096;16.976;2024-01-10T00:30:55;102086.02;;;-10.15;67.60
59686;BME280;45554;51.096;16.976;2024-01-10T00:33:23;102081.59;;;-10.19;67.26
59686;BME280;45554;51.096;16.976;2024-01-10T00:35:51;102084.47;;;-10.25;67.28
59686;BME280;45554;51.096;16.976;2024-01-10T00:38:19;102081.44;;;-10.27;67.44
59686;BME280;45554;51.096;16.976;2024-01-10T00:40:47;102080.94;;;-10.27;67.13
59686;BME280;45554;51.096;16.976;2024-01-10T00:43:15;102082.34;;;-10.32;67.12
59686;BME280;45554;51.096;16.976;2024-01-10T00:45:43;102082.89;;;-10.35;67.32
59686;BME280;45554;51.096;16.976;2024-01-10T00:48:11;102084.77;;;-10.34;67.53
59686;BME280;45554;51.096;16.976;2024-01-10T00:50:40;102077.09;;;-10.36;67.37
59686;BME280;45554;51.096;16.976;2024-01-10T00:53:08;102073.98;;;-10.39;67.30
59686;BME280;45554;51.096;16.976;2024-01-10T00:55:36;102072.75;;;-10.43;67.43
59686;BME280;45554;51.096;16.976;2024-01-10T00:58:04;102069.27;;;-10.47;67.24
59686;BME280;45554;51.096;16.976;2024-01-10T01:00:32;102068.06;;;-10.51;67.18
59686;BME280;45554;51.096;16.976;2024-01-10T01:03:00;102066.27;;;-10.53;67.38
59686;BME280;45554;51.096;16.976;2024-01-10T01:05:28;102067.34;;;-10.54;67.33
59686;BME280;45554;51.096;16.976;2024-01-10T01:07:57;102074.46;;;-10.54;67.58
59686;BME280;45554;51.096;16.976;2024-01-10T01:10:24;102080.78;;;-10.54;67.55
59686;BME280;45554;51.096;16.976;2024-01-10T01:12:52;102079.48;;;-10.56;67.31
59686;BME280;45554;51.096;16.976;2024-01-10T01:15:23;102085.25;;;-10.61;67.31
59686;BME280;45554;51.096;16.976;2024-01-10T01:17:51;102079.35;;;-10.60;67.53
59686;BME280;45554;51.096;16.976;2024-01-10T01:20:20;102080.13;;;-10.56;67.72
59686;BME280;45554;51.096;16.976;2024-01-10T01:22:48;102084.81;;;-10.54;67.51
59686;BME280;45554;51.096;16.976;2024-01-10T01:25:16;102081.89;;;-10.52;67.61
59686;BME280;45554;51.096;16.976;2024-01-10T01:27:44;102077.54;;;-10.54;67.74
59686;BME280;45554;51.096;16.976;2024-01-10T01:30:15;102076.41;;;-10.53;67.93
59686;BME280;45554;51.096;16.976;2024-01-10T01:32:43;102076.90;;;-10.50;68.05
59686;BME280;45554;51.096;16.976;2024-01-10T01:35:11;102075.84;;;-10.48;67.95
59686;BME280;45554;51.096;16.976;2024-01-10T01:37:39;102074.92;;;-10.46;68.12
59686;BME280;45554;51.096;16.976;2024-01-10T01:40:08;102073.95;;;-10.46;68.02
59686;BME280;45554;51.096;16.976;2024-01-10T01:42:36;102068.43;;;-10.45;68.05
59686;BME280;45554;51.096;16.976;2024-01-10T01:45:05;102070.36;;;-10.40;68.10
59686;BME280;45554;51.096;16.976;2024-01-10T01:47:33;102071.70;;;-10.38;67.98
59686;BME280;45554;51.096;16.976;2024-01-10T01:50:03;102065.46;;;-10.37;67.93
59686;BME280;45554;51.096;16.976;2024-01-10T01:52:32;102070.17;;;-10.38;67.80
59686;BME280;45554;51.096;16.976;2024-01-10T01:55:02;102063.26;;;-10.40;67.74
59686;BME280;45554;51.096;16.976;2024-01-10T01:57:30;102057.52;;;-10.45;67.49
59686;BME280;45554;51.096;16.976;2024-01-10T01:59:59;102056.79;;;-10.52;67.57
59686;BME280;45554;51.096;16.976;2024-01-10T02:02:28;102056.52;;;-10.54;67.81
59686;BME280;45554;51.096;16.976;2024-01-10T02:04:58;102059.55;;;-10.57;67.59
59686;BME280;45554;51.096;16.976;2024-01-10T02:07:27;102061.27;;;-10.60;67.56
59686;BME280;45554;51.096;16.976;2024-01-10T02:09:56;102055.02;;;-10.65;67.67
59686;BME280;45554;51.096;16.976;2024-01-10T02:12:25;102056.67;;;-10.66;67.78
59686;BME280;45554;51.096;16.976;2024-01-10T02:14:53;102061.71;;;-10.64;67.94
59686;BME280;45554;51.096;16.976;2024-01-10T02:17:21;102056.75;;;-10.67;67.58
59686;BME280;45554;51.096;16.976;2024-01-10T02:19:50;102055.92;;;-10.72;67.66
59686;BME280;45554;51.096;16.976;2024-01-10T02:22:35;102051.02;;;-10.75;67.80
59686;BME280;45554;51.096;16.976;2024-01-10T02:25:13;102053.27;;;-10.77;67.97
59686;BME280;45554;51.096;16.976;2024-01-10T02:27:42;102052.92;;;-10.78;68.05
59686;BME280;45554;51.096;16.976;2024-01-10T02:30:10;102052.33;;;-10.79;68.26
59686;BME280;45554;51.096;16.976;2024-01-10T02:32:40;102046.13;;;-10.75;68.57
59686;BME280;45554;51.096;16.976;2024-01-10T02:35:09;102044.34;;;-10.68;68.64
59686;BME280;45554;51.096;16.976;2024-01-10T02:37:38;102047.08;;;-10.62;68.79
59686;BME280;45554;51.096;16.976;2024-01-10T02:40:07;102050.39;;;-10.60;68.59
59686;BME280;45554;51.096;16.976;2024-01-10T02:42:36;102045.82;;;-10.60;68.54
59686;BME280;45554;51.096;16.976;2024-01-10T02:45:05;102044.27;;;-10.63;68.35
59686;BME280;45554;51.096;16.976;2024-01-10T02:47:33;102046.57;;;-10.67;68.28
59686;BME280;45554;51.096;16.976;2024-01-10T02:50:04;102044.01;;;-10.73;68.35
59686;BME280;45554;51.096;16.976;2024-01-10T02:52:32;102048.64;;;-10.75;68.70
59686;BME280;45554;51.096;16.976;2024-01-10T02:55:03;102043.04;;;-10.76;68.70
59686;BME280;45554;51.096;16.976;2024-01-10T02:57:32;102039.46;;;-10.76;68.62
59686;BME280;45554;51.096;16.976;2024-01-10T03:00:00;102035.89;;;-10.76;68.73
59686;BME280;45554;51.096;16.976;2024-01-10T03:02:29;102031.83;;;-10.70;69.12
59686;BME280;45554;51.096;16.976;2024-01-10T03:04:58;102030.64;;;-10.65;69.13
59686;BME280;45554;51.096;16.976;2024-01-10T03:07:26;102029.52;;;-10.61;69.18
59686;BME280;45554;51.096;16.976;2024-01-10T03:09:54;102025.65;;;-10.57;69.17
59686;BME280;45554;51.096;16.976;2024-01-10T03:12:23;102021.92;;;-10.57;68.90
59686;BME280;45554;51.096;16.976;2024-01-10T03:14:51;102021.45;;;-10.59;68.81
59686;BME280;45554;51.096;16.976;2024-01-10T03:17:19;102026.50;;;-10.63;68.81
59686;BME280;45554;51.096;16.976;2024-01-10T03:19:48;102026.03;;;-10.65;68.94
59686;BME280;45554;51.096;16.976;2024-01-10T03:22:16;102031.41;;;-10.66;68.67
59686;BME280;45554;51.096;16.976;2024-01-10T03:24:44;102035.73;;;-10.67;68.73
59686;BME280;45554;51.096;16.976;2024-01-10T03:27:12;102042.93;;;-10.69;68.46
59686;BME280;45554;51.096;16.976;2024-01-10T03:29:40;102038.59;;;-10.70;68.63
59686;BME280;45554;51.096;16.976;2024-01-10T03:32:08;102040.41;;;-10.71;68.61
59686;BME280;45554;51.096;16.976;2024-01-10T03:34:36;102038.91;;;-10.71;68.68
59686;BME280;45554;51.096;16.976;2024-01-10T03:37:04;102041.19;;;-10.70;68.60
59686;BME280;45554;51.096;16.976;2024-01-10T03:39:33;102038.08;;;-10.71;68.69
59686;BME280;45554;51.096;16.976;2024-01-10T03:42:01;102037.13;;;-10.75;68.41
59686;BME280;45554;51.096;16.976;2024-01-10T03:44:29;102033.31;;;-10.82;68.24
59686;BME280;45554;51.096;16.976;2024-01-10T03:46:57;102036.70;;;-10.88;68.30
59686;BME280;45554;51.096;16.976;2024-01-10T03:49:25;102035.05;;;-10.93;68.18
59686;BME280;45554;51.096;16.976;2024-01-10T03:51:53;102030.48;;;-10.96;68.45
59686;BME280;45554;51.096;16.976;2024-01-10T03:54:21;102033.67;;;-10.99;68.54
59686;BME280;45554;51.096;16.976;2024-01-10T03:56:53;102035.77;;;-11.00;68.70
59686;BME280;45554;51.096;16.976;2024-01-10T03:59:21;102032.92;;;-11.03;68.62
59686;BME280;45554;51.096;16.976;2024-01-10T04:01:49;102028.91;;;-11.08;68.42
59686;BME280;45554;51.096;16.976;2024-01-10T04:04:17;102022.14;;;-11.13;68.50
59686;BME280;45554;51.096;16.976;2024-01-10T04:06:45;102018.59;;;-11.16;68.54
59686;BME280;45554;51.096;16.976;2024-01-10T04:09:13;102016.56;;;-11.19;68.35
59686;BME280;45554;51.096;16.976;2024-01-10T04:11:42;102008.98;;;-11.24;68.61
59686;BME280;45554;51.096;16.976;2024-01-10T04:14:10;102010.41;;;-11.25;68.58
59686;BME280;45554;51.096;16.976;2024-01-10T04:16:37;102018.10;;;-11.24;68.96
59686;BME280;45554;51.096;16.976;2024-01-10T04:19:06;102011.88;;;-11.23;68.82
59686;BME280;45554;51.096;16.976;2024-01-10T04:21:34;102010.05;;;-11.20;69.10
59686;BME280;45554;51.096;16.976;2024-01-10T04:24:02;102006.52;;;-11.19;68.92
59686;BME280;45554;51.096;16.976;2024-01-10T04:26:30;102002.52;;;-11.22;68.64
59686;BME280;45554;51.096;16.976;2024-01-10T04:28:59;102000.45;;;-11.25;68.55
59686;BME280;45554;51.096;16.976;2024-01-10T04:31:27;102004.44;;;-11.29;68.48
59686;BME280;45554;51.096;16.976;2024-01-10T04:33:55;102007.08;;;-11.33;69.00
59686;BME280;45554;51.096;16.976;2024-01-10T04:36:23;102005.13;;;-11.28;69.12
59686;BME280;45554;51.096;16.976;2024-01-10T04:38:51;102002.76;;;-11.26;68.86
59686;BME280;45554;51.096;16.976;2024-01-10T04:41:19;101996.80;;;-11.26;69.00
59686;BME280;45554;51.096;16.976;2024-01-10T04:43:47;101998.09;;;-11.27;68.67
59686;BME280;45554;51.096;16.976;2024-01-10T04:46:15;102000.67;;;-11.26;69.06
59686;BME280;45554;51.096;16.976;2024-01-10T04:48:44;102004.11;;;-11.23;69.11
59686;BME280;45554;51.096;16.976;2024-01-10T04:51:12;102006.96;;;-11.21;69.05
59686;BME280;45554;51.096;16.976;2024-01-10T04:53:40;102006.00;;;-11.22;68.85
59686;BME280;45554;51.096;16.976;2024-01-10T04:56:11;102010.27;;;-11.22;68.84
59686;BME280;45554;51.096;16.976;2024-01-10T04:58:39;102009.73;;;-11.22;68.89
59686;BME280;45554;51.096;16.976;2024-01-10T05:01:07;102003.58;;;-11.21;68.98
59686;BME280;45554;51.096;16.976;2024-01-10T05:03:35;102005.45;;;-11.21;68.99
59686;BME280;45554;51.096;16.976;2024-01-10T05:06:04;102000.23;;;-11.17;69.10
59686;BME280;45554;51.096;16.976;2024-01-10T05:08:34;101999.06;;;-11.14;69.18
59686;BME280;45554;51.096;16.976;2024-01-10T05:11:03;101992.59;;;-11.15;68.98
59686;BME280;45554;51.096;16.976;2024-01-10T05:13:30;101991.66;;;-11.16;68.82
59686;BME280;45554;51.096;16.976;2024-01-10T05:15:58;101994.20;;;-11.16;69.11
59686;BME280;45554;51.096;16.976;2024-01-10T05:18:26;101994.48;;;-11.14;69.37
59686;BME280;45554;51.096;16.976;2024-01-10T05:20:54;101998.74;;;-11.05;69.47
59686;BME280;45554;51.096;16.976;2024-01-10T05:23:22;102001.97;;;-10.99;69.05
59686;BME280;45554;51.096;16.976;2024-01-10T05:25:53;102002.73;;;-10.95;69.09
59686;BME280;45554;51.096;16.976;2024-01-10T05:28:21;102004.17;;;-10.94;69.04
59686;BME280;45554;51.096;16.976;2024-01-10T05:30:49;102008.38;;;-10.94;68.71
59686;BME280;45554;51.096;16.976;2024-01-10T05:33:20;102011.39;;;-10.98;68.59
59686;BME280;45554;51.096;16.976;2024-01-10T05:35:48;102007.55;;;-11.03;68.61
59686;BME280;45554;51.096;16.976;2024-01-10T05:38:16;102012.19;;;-11.07;68.49
59686;BME280;45554;51.096;16.976;2024-01-10T05:40:44;102015.34;;;-11.11;68.61
59686;BME280;45554;51.096;16.976;2024-01-10T05:43:12;102013.70;;;-11.13;68.83
59686;BME280;45554;51.096;16.976;2024-01-10T05:45:40;102012.74;;;-11.12;68.33
59686;BME280;45554;51.096;16.976;2024-01-10T05:48:08;102007.54;;;-11.14;68.70
59686;BME280;45554;51.096;16.976;2024-01-10T05:50:37;102008.71;;;-11.14;69.02
59686;BME280;45554;51.096;16.976;2024-01-10T05:53:06;102009.86;;;-11.12;68.87
59686;BME280;45554;51.096;16.976;2024-01-10T05:55:39;102003.36;;;-11.12;68.67
59686;BME280;45554;51.096;16.976;2024-01-10T05:58:13;102007.29;;;-11.15;68.70
59686;BME280;45554;51.096;16.976;2024-01-10T06:00:42;102007.94;;;-11.19;68.58
59686;BME280;45554;51.096;16.976;2024-01-10T06:03:10;102001.90;;;-11.18;68.60
59686;BME280;45554;51.096;16.976;2024-01-10T06:05:39;101999.70;;;-11.17;68.59
59686;BME280;45554;51.096;16.976;2024-01-10T06:08:08;102001.61;;;-11.14;68.80
59686;BME280;45554;51.096;16.976;2024-01-10T06:10:38;102003.33;;;-11.14;68.68
59686;BME280;45554;51.096;16.976;2024-01-10T06:13:06;102003.98;;;-11.17;68.69
59686;BME280;45554;51.096;16.976;2024-01-10T06:15:35;102008.86;;;-11.20;68.60
59686;BME280;45554;51.096;16.976;2024-01-10T06:18:03;102012.35;;;-11.18;68.73
59686;BME280;45554;51.096;16.976;2024-01-10T06:20:31;102010.47;;;-11.13;69.06
59686;BME280;45554;51.096;16.976;2024-01-10T06:23:00;102011.17;;;-11.13;68.83
59686;BME280;45554;51.096;16.976;2024-01-10T06:25:28;102011.55;;;-11.12;68.67
59686;BME280;45554;51.096;16.976;2024-01-10T06:27:55;102013.46;;;-11.11;68.64
59686;BME280;45554;51.096;16.976;2024-01-10T06:30:24;102012.95;;;-11.14;68.49
59686;BME280;45554;51.096;16.976;2024-01-10T06:32:52;102009.84;;;-11.20;68.40
59686;BME280;45554;51.096;16.976;2024-01-10T06:35:20;102012.70;;;-11.21;68.55
59686;BME280;45554;51.096;16.976;2024-01-10T06:37:49;102012.10;;;-11.25;68.39
59686;BME280;45554;51.096;16.976;2024-01-10T06:40:17;102003.99;;;-11.33;68.62
59686;BME280;45554;51.096;16.976;2024-01-10T06:42:45;102003.91;;;-11.40;68.39
59686;BME280;45554;51.096;16.976;2024-01-10T06:45:14;102003.77;;;-11.39;68.56
59686;BME280;45554;51.096;16.976;2024-01-10T06:47:41;101998.55;;;-11.39;68.63
59686;BME280;45554;51.096;16.976;2024-01-10T06:50:09;101999.48;;;-11.38;69.01
59686;BME280;45554;51.096;16.976;2024-01-10T06:52:38;101997.00;;;-11.34;68.69
59686;BME280;45554;51.096;16.976;2024-01-10T06:55:07;101991.59;;;-11.36;68.66
59686;BME280;45554;51.096;16.976;2024-01-10T06:57:35;101995.17;;;-11.34;68.76
59686;BME280;45554;51.096;16.976;2024-01-10T07:00:04;101996.98;;;-11.34;68.71
59686;BME280;45554;51.096;16.976;2024-01-10T07:02:35;101991.98;;;-11.33;68.60
59686;BME280;45554;51.096;16.976;2024-01-10T07:05:08;101965.09;;;-11.49;68.67
59686;BME280;45554;51.096;16.976;2024-01-10T07:07:36;101986.86;;;-11.34;69.00
59686;BME280;45554;51.096;16.976;2024-01-10T07:10:09;101989.28;;;-11.33;68.59
59686;BME280;45554;51.096;16.976;2024-01-10T07:12:38;101990.60;;;-11.28;68.71
59686;BME280;45554;51.096;16.976;2024-01-10T07:15:07;101991.12;;;-11.22;68.77
59686;BME280;45554;51.096;16.976;2024-01-10T07:17:35;101988.48;;;-11.19;68.47
59686;BME280;45554;51.096;16.976;2024-01-10T07:20:03;101988.15;;;-11.18;68.40
59686;BME280;45554;51.096;16.976;2024-01-10T07:22:33;101986.67;;;-11.17;68.35
59686;BME280;45554;51.096;16.976;2024-01-10T07:25:07;101982.66;;;-11.13;68.34
59686;BME280;45554;51.096;16.976;2024-01-10T07:27:37;101977.30;;;-11.10;68.49
59686;BME280;45554;51.096;16.976;2024-01-10T07:30:08;101973.31;;;-11.09;68.25
59686;BME280;45554;51.096;16.976;2024-01-10T07:32:45;101966.02;;;-11.09;68.40
59686;BME280;45554;51.096;16.976;2024-01-10T07:35:14;101966.48;;;-11.04;68.45
59686;BME280;45554;51.096;16.976;2024-01-10T07:37:42;101961.48;;;-10.97;68.39
59686;BME280;45554;51.096;16.976;2024-01-10T07:40:11;101955.89;;;-10.94;68.12
59686;BME280;45554;51.096;16.976;2024-01-10T07:42:42;101956.61;;;-10.93;68.00
59686;BME280;45554;51.096;16.976;2024-01-10T07:45:10;101957.48;;;-10.93;67.99
59686;BME280;45554;51.096;16.976;2024-01-10T07:47:38;101949.59;;;-10.94;67.95
59686;BME280;45554;51.096;16.976;2024-01-10T07:50:08;101947.69;;;-10.92;67.87
59686;BME280;45554;51.096;16.976;2024-01-10T07:52:37;101951.51;;;-10.91;67.98
59686;BME280;45554;51.096;16.976;2024-01-10T07:55:06;101953.92;;;-10.90;68.05
59686;BME280;45554;51.096;16.976;2024-01-10T07:57:35;101951.70;;;-10.87;67.94
59686;BME280;45554;51.096;16.976;2024-01-10T08:00:07;101957.00;;;-10.81;68.06
59686;BME280;45554;51.096;16.976;2024-01-10T08:02:39;101959.94;;;-10.74;67.91
59686;BME280;45554;51.096;16.976;2024-01-10T08:05:08;101964.14;;;-10.71;67.77
59686;BME280;45554;51.096;16.976;2024-01-10T08:07:37;101965.61;;;-10.70;67.68
59686;BME280;45554;51.096;16.976;2024-01-10T08:10:07;101971.05;;;-10.64;67.82
59686;BME280;45554;51.096;16.976;2024-01-10T08:12:37;101977.95;;;-10.62;67.51
59686;BME280;45554;51.096;16.976;2024-01-10T08:15:10;101977.55;;;-10.56;67.65
59686;BME280;45554;51.096;16.976;2024-01-10T08:17:41;101979.11;;;-10.47;67.83
59686;BME280;45554;51.096;16.976;2024-01-10T08:20:15;101980.08;;;-10.36;67.68
59686;BME280;45554;51.096;16.976;2024-01-10T08:22:47;101978.82;;;-10.28;67.63
59686;BME280;45554;51.096;16.976;2024-01-10T08:25:16;101980.48;;;-10.20;67.33
59686;BME280;45554;51.096;16.976;2024-01-10T08:27:50;101977.31;;;-10.13;67.81
59686;BME280;45554;51.096;16.976;2024-01-10T08:30:22;101979.92;;;-10.06;67.51
59686;BME280;45554;51.096;16.976;2024-01-10T08:32:49;101977.45;;;-10.01;67.07
59686;BME280;45554;51.096;16.976;2024-01-10T08:35:18;101975.83;;;-9.97;67.10
59686;BME280;45554;51.096;16.976;2024-01-10T08:37:48;101982.51;;;-9.93;66.99
59686;BME280;45554;51.096;16.976;2024-01-10T08:40:16;101984.49;;;-9.93;66.88
59686;BME280;45554;51.096;16.976;2024-01-10T08:42:44;101987.38;;;-9.87;66.79
59686;BME280;45554;51.096;16.976;2024-01-10T08:45:13;101986.16;;;-9.82;66.77
59686;BME280;45554;51.096;16.976;2024-01-10T08:47:42;101985.53;;;-9.75;66.76
59686;BME280;45554;51.096;16.976;2024-01-10T08:50:11;101976.96;;;-9.70;66.83
59686;BME280;45554;51.096;16.976;2024-01-10T08:52:39;101981.79;;;-9.62;66.71
59686;BME280;45554;51.096;16.976;2024-01-10T08:55:09;101979.13;;;-9.55;66.61
59686;BME280;45554;51.096;16.976;2024-01-10T08:57:41;101975.81;;;-9.44;66.76
59686;BME280;45554;51.096;16.976;2024-01-10T09:00:18;101969.84;;;-9.39;66.39
59686;BME280;45554;51.096;16.976;2024-01-10T09:02:49;101970.05;;;-9.34;66.47
59686;BME280;45554;51.096;16.976;2024-01-10T09:05:17;101966.58;;;-9.32;66.46
59686;BME280;45554;51.096;16.976;2024-01-10T09:07:47;101967.10;;;-9.23;66.84
59686;BME280;45554;51.096;16.976;2024-01-10T09:10:15;101961.10;;;-9.07;66.49
59686;BME280;45554;51.096;16.976;2024-01-10T09:12:43;101961.68;;;-8.96;66.32
59686;BME280;45554;51.096;16.976;2024-01-10T09:15:14;101962.55;;;-8.89;65.93
59686;BME280;45554;51.096;16.976;2024-01-10T09:17:43;101960.66;;;-8.83;66.07
59686;BME280;45554;51.096;16.976;2024-01-10T09:20:12;101957.78;;;-8.69;66.22
59686;BME280;45554;51.096;16.976;2024-01-10T09:22:41;101956.52;;;-8.57;66.09
59686;BME280;45554;51.096;16.976;2024-01-10T09:25:09;101959.95;;;-8.49;65.88
59686;BME280;45554;51.096;16.976;2024-01-10T09:27:42;101955.25;;;-8.41;66.10
59686;BME280;45554;51.096;16.976;2024-01-10T09:30:12;101956.20;;;-8.31;65.97
59686;BME280;45554;51.096;16.976;2024-01-10T09:32:41;101945.80;;;-8.21;65.85
59686;BME280;45554;51.096;16.976;2024-01-10T09:35:11;101938.45;;;-8.15;65.25
59686;BME280;45554;51.096;16.976;2024-01-10T09:37:40;101938.66;;;-8.14;65.34
59686;BME280;45554;51.096;16.976;2024-01-10T09:40:13;101940.75;;;-8.06;65.38
59686;BME280;45554;51.096;16.976;2024-01-10T09:42:49;101931.69;;;-7.96;65.75
59686;BME280;45554;51.096;16.976;2024-01-10T09:45:23;101934.61;;;-7.85;65.29
59686;BME280;45554;51.096;16.976;2024-01-10T09:47:55;101930.48;;;-7.78;65.03
59686;BME280;45554;51.096;16.976;2024-01-10T09:50:24;101931.15;;;-7.68;65.43
59686;BME280;45554;51.096;16.976;2024-01-10T09:53:07;101931.84;;;-7.60;65.04
59686;BME280;45554;51.096;16.976;2024-01-10T09:55:41;101932.05;;;-7.48;64.95
59686;BME280;45554;51.096;16.976;2024-01-10T09:58:10;101928.52;;;-7.35;65.06
59686;BME280;45554;51.096;16.976;2024-01-10T10:00:39;101931.69;;;-7.25;64.95
59686;BME280;45554;51.096;16.976;2024-01-10T10:03:09;101931.91;;;-7.24;64.40
59686;BME280;45554;51.096;16.976;2024-01-10T10:05:41;101926.40;;;-7.25;64.10
59686;BME280;45554;51.096;16.976;2024-01-10T10:08:12;101918.35;;;-7.22;64.19
59686;BME280;45554;51.096;16.976;2024-01-10T10:10:42;101906.49;;;-7.13;64.32
59686;BME280;45554;51.096;16.976;2024-01-10T10:13:29;101906.22;;;-6.99;64.15
59686;BME280;45554;51.096;16.976;2024-01-10T10:15:58;101903.59;;;-6.85;63.92
59686;BME280;45554;51.096;16.976;2024-01-10T10:18:30;101903.50;;;-6.75;63.89
59686;BME280;45554;51.096;16.976;2024-01-10T10:21:18;101907.45;;;-6.66;63.48
59686;BME280;45554;51.096;16.976;2024-01-10T10:24:00;101903.36;;;-6.62;63.53
59686;BME280;45554;51.096;16.976;2024-01-10T10:26:32;101911.10;;;-6.56;63.52
59686;BME280;45554;51.096;16.976;2024-01-10T10:29:00;101915.34;;;-6.48;63.36
59686;BME280;45554;51.096;16.976;2024-01-10T10:31:29;101909.94;;;-6.43;63.27
59686;BME280;45554;51.096;16.976;2024-01-10T10:34:00;101911.42;;;-6.35;63.12
59686;BME280;45554;51.096;16.976;2024-01-10T10:36:30;101909.13;;;-6.29;62.99
59686;BME280;45554;51.096;16.976;2024-01-10T10:39:00;101906.48;;;-6.27;62.81
59686;BME280;45554;51.096;16.976;2024-01-10T10:41:34;101907.08;;;-6.16;62.88
59686;BME280;45554;51.096;16.976;2024-01-10T10:44:04;101907.93;;;-6.02;62.90
59686;BME280;45554;51.096;16.976;2024-01-10T10:46:38;101909.44;;;-5.85;62.91
59686;BME280;45554;51.096;16.976;2024-01-10T10:49:11;101910.32;;;-5.66;62.97
59686;BME280;45554;51.096;16.976;2024-01-10T10:51:41;101909.45;;;-5.53;62.82
59686;BME280;45554;51.096;16.976;2024-01-10T10:54:10;101911.39;;;-5.42;62.56
59686;BME280;45554;51.096;16.976;2024-01-10T10:56:40;101909.14;;;-5.38;62.04
59686;BME280;45554;51.096;16.976;2024-01-10T10:59:10;101911.96;;;-5.40;61.81
59686;BME280;45554;51.096;16.976;2024-01-10T11:01:40;101907.88;;;-5.45;61.55
59686;BME280;45554;51.096;16.976;2024-01-10T11:04:09;101908.45;;;-5.48;61.53
59686;BME280;45554;51.096;16.976;2024-01-10T11:06:38;101911.15;;;-5.44;61.68
59686;BME280;45554;51.096;16.976;2024-01-10T11:09:08;101904.65;;;-5.39;61.67
59686;BME280;45554;51.096;16.976;2024-01-10T11:12:17;101899.00;;;-5.30;61.61
59686;BME280;45554;51.096;16.976;2024-01-10T11:23:54;101896.09;;;-4.96;61.54
59686;BME280;45554;51.096;16.976;2024-01-10T11:26:24;101891.08;;;-4.93;61.37
59686;BME280;45554;51.096;16.976;2024-01-10T11:28:53;101890.09;;;-4.87;61.27
59686;BME280;45554;51.096;16.976;2024-01-10T11:31:30;101890.05;;;-4.78;61.18
59686;BME280;45554;51.096;16.976;2024-01-10T11:34:02;101882.16;;;-4.73;61.10
59686;BME280;45554;51.096;16.976;2024-01-10T11:36:32;101879.40;;;-4.69;60.89
59686;BME280;45554;51.096;16.976;2024-01-10T11:39:03;101878.20;;;-4.64;60.78
59686;BME280;45554;51.096;16.976;2024-01-10T11:41:34;101874.27;;;-4.59;60.73
59686;BME280;45554;51.096;16.976;2024-01-10T11:46:43;101866.85;;;-4.55;60.37
59686;BME280;45554;51.096;16.976;2024-01-10T11:49:13;101865.80;;;-4.55;60.45
59686;BME280;45554;51.096;16.976;2024-01-10T11:52:02;101861.73;;;-4.49;60.59
59686;BME280;45554;51.096;16.976;2024-01-10T11:54:35;101858.73;;;-4.41;60.48
59686;BME280;45554;51.096;16.976;2024-01-10T11:59:49;101859.71;;;-4.26;60.50
59686;BME280;45554;51.096;16.976;2024-01-10T12:02:18;101860.06;;;-4.15;60.59
59686;BME280;45554;51.096;16.976;2024-01-10T12:04:48;101858.39;;;-4.02;60.35
59686;BME280;45554;51.096;16.976;2024-01-10T12:07:18;101855.77;;;-3.87;60.23
59686;BME280;45554;51.096;16.976;2024-01-10T12:09:48;101846.90;;;-3.79;59.83
59686;BME280;45554;51.096;16.976;2024-01-10T12:12:16;101843.63;;;-3.68;59.68
59686;BME280;45554;51.096;16.976;2024-01-10T12:14:44;101836.48;;;-3.54;59.96
59686;BME280;45554;51.096;16.976;2024-01-10T12:17:13;101836.59;;;-3.38;59.88
59686;BME280;45554;51.096;16.976;2024-01-10T12:19:42;101829.27;;;-3.23;59.80
59686;BME280;45554;51.096;16.976;2024-01-10T12:22:16;101824.06;;;-3.06;59.37
59686;BME280;45554;51.096;16.976;2024-01-10T12:24:48;101821.60;;;-2.88;59.46
59686;BME280;45554;51.096;16.976;2024-01-10T12:27:19;101817.23;;;-2.70;59.28
59686;BME280;45554;51.096;16.976;2024-01-10T12:29:52;101816.12;;;-2.52;58.91
59686;BME280;45554;51.096;16.976;2024-01-10T12:32:23;101811.48;;;-2.37;58.60
59686;BME280;45554;51.096;16.976;2024-01-10T12:35:01;101810.59;;;-2.23;58.38
59686;BME280;45554;51.096;16.976;2024-01-10T12:37:32;101814.16;;;-2.09;58.11
59686;BME280;45554;51.096;16.976;2024-01-10T12:40:01;101812.55;;;-1.96;57.87
59686;BME280;45554;51.096;16.976;2024-01-10T12:42:37;101802.05;;;-1.80;57.86
59686;BME280;45554;51.096;16.976;2024-01-10T12:45:20;101800.58;;;-1.68;57.41
59686;BME280;45554;51.096;16.976;2024-01-10T12:47:48;101796.98;;;-1.59;57.11
59686;BME280;45554;51.096;16.976;2024-01-10T12:50:16;101792.73;;;-1.46;57.20
59686;BME280;45554;51.096;16.976;2024-01-10T12:52:44;101794.56;;;-1.31;57.44
59686;BME280;45554;51.096;16.976;2024-01-10T12:55:16;101793.48;;;-1.15;56.92
59686;BME280;45554;51.096;16.976;2024-01-10T12:57:46;101795.42;;;-1.03;56.70
59686;BME280;45554;51.096;16.976;2024-01-10T13:00:14;101795.75;;;-0.93;56.52